Aviation Digital Data Service (ADDS)

Output produced by TAFs form (0838 UTC 24 September 2017)
found at http://aviationweather.gov/adds/tafs/
 
KSAF 240537Z 2406/2506 35005KT P6SM SCT100 
     TEMPO 2407/2411 BKN015 
     FM241200 01006KT P6SM SKC 
     FM241700 23012G20KT P6SM SKC 
     FM250200 12011KT P6SM FEW100